Latest Weather Observations for Narrabri

IDN60801

Issued at 9:32 pm EST Saturday 18 April 2015 (issued every 30 minutes, with the page automatically refreshed every 10 minutes)

About weather observations | Map of weather stations | Latest weather observations for NSW | Other Formats
Station Details ID: 054038 Name: NARRABRI AIRPORT AWS Lat: -30.32 Lon: 149.83 Height: 229.02 m
Data from the previous 72 hours. | See also: Recent months at Narrabri
Date/Time
EST
Temp
°C
App
Temp
°C
Dew
Point
Rel
Hum
%
Delta-T
°C
Wind Press
QNH
hPa
Press
MSL
hPa
Rain
since 9 am
mm
Dir
 
Spd
km/h
Gust
km/h
Spd
kts
Gust
kts
18/09:00pm 22.1 20.7 17.0 73 3.1 NNE 20 26 11 14 1017.3 1016.6 0.0
18/08:30pm 22.8 19.6 16.4 67 3.9 N 28 35 15 19 1017.5 1016.8 0.0
18/08:29pm 22.9 19.7 16.2 66 4.1 N 28 35 15 19 1017.5 1016.8 0.0
18/08:00pm 21.3 20.9 15.2 68 3.6 N 11 15 6 8 1017.0 1016.3 0.0
18/07:30pm 21.6 20.8 15.0 66 3.9 NNE 13 19 7 10 1016.8 1016.1 0.0
18/07:00pm 21.9 20.5 14.5 63 4.4 NNE 15 15 8 8 1016.4 1015.6 0.0
18/06:30pm 22.8 21.4 14.6 60 4.9 N 15 17 8 9 1016.3 1015.5 0.0
18/06:00pm 23.7 22.0 14.7 57 5.4 N 17 20 9 11 1016.3 1015.5 0.0
18/05:30pm 24.9 22.6 14.7 53 6.1 N 20 26 11 14 1016.3 1015.5 0.0
18/05:00pm 25.7 22.6 14.5 50 6.7 N 24 33 13 18 1016.4 1015.6 0.0
18/04:30pm 25.9 22.4 14.4 49 6.9 N 26 33 14 18 1016.4 1015.6 0.0
18/04:00pm 27.2 23.9 14.9 47 7.5 N 26 33 14 18 1016.5 1015.8 0.0
18/03:30pm 26.9 22.7 14.6 46 7.5 N 30 39 16 21 1016.6 1015.9 0.0
18/03:00pm 26.5 23.2 14.9 49 7.0 N 26 35 14 19 1016.9 1016.2 0.0
18/02:30pm 25.9 21.7 14.7 50 6.8 N 30 41 16 22 1016.9 1016.2 0.0
18/02:00pm 26.0 21.5 14.8 50 6.8 N 32 39 17 21 1017.4 1016.7 0.0
18/01:30pm 26.4 23.1 15.1 49 6.9 N 26 35 14 19 1017.7 1017.0 0.0
18/01:00pm 25.6 21.3 15.3 53 6.3 NNE 32 43 17 23 1018.0 1017.3 0.0
18/12:30pm 25.6 21.9 15.0 52 6.4 N 28 39 15 21 1018.6 1017.9 0.0
18/12:00pm 25.0 21.0 15.3 55 5.9 N 30 41 16 22 1019.5 1018.8 0.0
18/11:30am 24.6 20.0 15.0 55 5.8 N 33 44 18 24 1020.0 1019.3 0.0
18/11:00am 25.8 22.5 16.1 55 6.0 NNE 28 39 15 21 1020.4 1019.8 0.0
18/10:30am 24.1 18.9 14.5 55 5.7 N 35 48 19 26 1020.6 1020.0 0.0
18/10:00am 23.8 18.6 14.5 56 5.5 NNE 35 46 19 25 1020.6 1020.0 0.0
18/09:30am 23.7 18.4 14.1 55 5.7 NNE 35 46 19 25 1020.7 1020.1 0.0
18/09:00am 23.0 17.3 14.3 58 5.2 NNE 37 46 20 25 1021.2 1020.5 0.0
18/08:30am 22.8 17.1 14.1 58 5.1 NNE 37 50 20 27 1021.1 1020.4 0.0
18/08:00am 22.5 17.1 13.8 58 5.1 NNE 35 50 19 27 1020.9 1020.2 0.0
18/07:30am 21.6 17.4 13.5 60 4.7 NNE 28 39 15 21 1020.7 1020.1 0.0
18/07:00am 21.0 16.7 13.2 61 4.5 NNE 28 37 15 20 1020.5 1019.9 0.0
18/06:30am 20.4 16.3 12.6 61 4.4 NNE 26 32 14 17 1020.2 1019.6 0.0
18/06:00am 20.4 15.7 12.1 59 4.7 NNE 28 35 15 19 1019.9 1019.2 0.0
18/05:30am 20.5 15.4 12.0 58 4.8 NNE 30 41 16 22 1019.7 1019.0 0.0
18/05:00am 20.2 16.0 12.4 61 4.4 NNE 26 35 14 19 1019.7 1019.0 0.0
18/04:30am 19.9 16.5 13.8 68 3.5 NNE 24 32 13 17 1019.5 1018.8 0.0
18/04:00am 20.2 17.3 13.9 67 3.7 NNE 22 28 12 15 1019.3 1018.6 0.0
18/03:30am 20.5 17.0 13.5 64 4.1 NNE 24 32 13 17 1019.3 1018.6 0.0
18/03:00am 21.0 17.6 13.7 63 4.2 NNE 24 35 13 19 1019.2 1018.5 0.0
18/02:30am 20.1 17.5 13.3 65 3.9 NE 19 26 10 14 1019.3 1018.6 0.0
18/02:00am 20.8 18.1 13.5 63 4.2 NE 20 26 11 14 1019.6 1018.9 0.0
18/01:30am 21.1 18.0 13.5 62 4.4 NE 22 28 12 15 1019.6 1018.9 0.0
18/01:00am 20.7 18.2 13.4 63 4.2 NNE 19 22 10 12 1019.8 1019.1 0.0
18/12:30am 21.6 18.9 13.5 60 4.7 NE 20 28 11 15 1019.9 1019.2 0.0
18/12:00am 20.4 18.0 13.8 66 3.8 NE 19 22 10 12 1020.4 1019.8 0.0
 
Date/Time
EST
Temp
°C
App
Temp
°C
Dew
Point
Rel
Hum
%
Delta-T
°C
Wind Press
QNH
hPa
Press
MSL
hPa
Rain
since 9 am
mm
Dir
 
Spd
km/h
Gust
km/h
Spd
kts
Gust
kts
17/11:30pm 20.1 18.1 14.0 68 3.6 NE 17 20 9 11 1021.0 1020.3 0.0
17/11:00pm 19.7 17.9 14.5 72 3.0 NE 17 20 9 11 1020.7 1020.1 0.0
17/10:30pm 18.1 16.9 15.0 82 1.8 NE 15 19 8 10 1020.6 1020.0 0.0
17/10:00pm 20.3 19.5 15.1 72 3.1 E 13 17 7 9 1020.5 1019.9 0.0
17/09:30pm 20.2 19.6 15.6 75 2.8 E 13 15 7 8 1020.3 1019.7 0.0
17/09:00pm 20.2 19.4 16.0 77 2.5 E 15 19 8 10 1019.9 1019.2 0.0
17/08:30pm 20.9 20.3 16.7 77 2.6 E 15 19 8 10 1019.6 1018.9 0.0
17/08:00pm 21.1 20.3 17.1 78 2.5 E 17 19 9 10 1019.5 1018.8 0.0
17/07:30pm 22.0 21.8 17.6 76 2.7 E 15 19 8 10 1019.4 1018.7 0.0
17/07:00pm 20.8 20.9 16.6 77 2.6 E 11 13 6 7 1019.2 1018.5 0.0
17/06:30pm 22.0 22.6 15.8 68 3.8 S 7 9 4 5 1019.0 1018.3 0.0
17/06:00pm 22.9 23.6 16.0 65 4.2 S 7 7 4 4 1018.8 1018.1 0.0
17/05:30pm 25.3 26.4 17.0 60 5.2 S 7 9 4 5 1018.6 1017.9 0.0
17/05:00pm 26.5 27.2 17.0 56 6.0 S 9 11 5 6 1018.4 1017.7 0.0
17/04:30pm 26.0 27.2 17.4 59 5.4 SSE 7 9 4 5 1018.4 1017.7 0.0
17/04:00pm 26.8 27.1 17.0 55 6.2 S 11 13 6 7 1018.4 1017.7 0.0
17/03:30pm 28.0 27.9 16.0 48 7.5 S 11 17 6 9 1018.6 1017.9 0.0
17/03:00pm 29.0 29.8 15.9 45 8.2 NNE 6 13 3 7 1018.9 1018.2 0.0
17/02:30pm 28.3 28.6 14.9 44 8.2 NNW 7 9 4 5 1019.1 1018.4 0.0
17/02:00pm 27.9 27.2 15.5 46 7.6 NNW 13 26 7 14 1019.5 1018.8 0.0
17/01:30pm 27.9 27.4 15.9 48 7.5 N 13 20 7 11 1019.7 1019.0 0.0
17/01:00pm 27.4 26.0 14.4 45 7.9 N 15 24 8 13 1020.4 1019.8 0.0
17/12:30pm 27.8 26.4 15.5 47 7.6 NNW 17 24 9 13 1021.4 1020.7 0.0
17/12:00pm 27.2 25.6 15.9 50 7.0 N 19 33 10 18 1021.9 1021.2 0.0
17/11:30am 26.4 24.3 15.1 49 6.9 N 20 30 11 16 1022.7 1022.0 0.0
17/11:00am 26.0 23.5 15.1 51 6.6 N 22 28 12 15 1023.2 1022.5 0.0
17/10:30am 25.9 23.3 15.0 51 6.6 N 22 32 12 17 1023.4 1022.7 0.0
17/10:00am 25.2 22.2 14.9 52 6.2 N 24 33 13 18 1023.7 1023.0 0.0
17/09:30am 24.6 21.4 15.2 55 5.7 N 26 33 14 18 1024.0 1023.4 0.0
17/09:00am 24.0 20.4 15.2 58 5.3 N 28 35 15 19 1024.3 1023.7 0.0
17/08:30am 23.5 19.4 15.0 59 5.1 N 30 39 16 21 1024.2 1023.6 0.0
17/08:00am 22.8 19.8 14.9 61 4.7 N 24 30 13 16 1024.1 1023.5 0.0
17/07:30am 21.3 20.6 15.4 69 3.5 NNE 13 19 7 10 1024.1 1023.5 0.0
17/07:00am 19.2 19.5 15.9 81 2.0 N 9 13 5 7 1023.9 1023.2 0.0
17/06:30am 16.3 15.9 14.0 86 1.3 N 9 13 5 7 1023.2 1022.5 0.0
17/06:00am 17.1 16.7 14.2 83 1.7 S 9 11 5 6 1023.0 1022.3 0.0
17/05:30am 18.8 17.6 13.9 73 2.8 NNE 13 15 7 8 1022.3 1021.6 0.0
17/05:00am 19.8 17.9 14.2 70 3.3 NNE 17 20 9 11 1021.9 1021.2 0.0
17/04:30am 19.7 18.2 14.3 71 3.2 NNE 15 19 8 10 1021.5 1020.8 0.0
17/04:00am 19.8 18.7 14.4 71 3.2 NE 13 15 7 8 1021.3 1020.6 0.0
17/03:30am 18.9 17.8 14.4 75 2.6 ENE 13 15 7 8 1021.3 1020.6 0.0
17/03:00am 19.2 17.9 14.7 75 2.6 E 15 17 8 9 1021.5 1020.8 0.0
17/02:30am 18.0 17.5 16.0 88 1.2 E 13 17 7 9 1021.9 1021.2 0.0
17/02:00am 16.2 17.9 15.1 93 0.6 CALM 0 0 0 0 1022.3 1021.6 0.0
17/01:30am 16.7 18.3 14.9 89 1.1 CALM 0 6 0 3 1022.2 1021.5 0.0
17/01:00am 17.0 18.2 13.7 81 1.9 CALM 0 0 0 0 1022.4 1021.7 0.0
17/12:30am 20.1 18.8 13.8 67 3.7 E 13 15 7 8 1022.4 1021.7 0.0
17/12:00am 20.0 18.8 13.9 68 3.5 E 13 15 7 8 1022.5 1021.8 0.0
 
Date/Time
EST
Temp
°C
App
Temp
°C
Dew
Point
Rel
Hum
%
Delta-T
°C
Wind Press
QNH
hPa
Press
MSL
hPa
Rain
since 9 am
mm
Dir
 
Spd
km/h
Gust
km/h
Spd
kts
Gust
kts
16/11:30pm 20.3 18.8 14.2 68 3.6 E 15 19 8 10 1022.6 1021.9 0.0
16/11:00pm 20.3 18.5 14.4 69 3.5 E 17 19 9 10 1022.8 1022.1 0.0
16/10:30pm 19.9 18.0 14.3 70 3.3 E 17 19 9 10 1023.0 1022.3 0.0
16/10:00pm 20.1 18.8 14.7 71 3.2 E 15 17 8 9 1023.2 1022.5 0.0
16/09:30pm 20.1 18.4 14.7 71 3.2 E 17 19 9 10 1023.2 1022.5 0.0
16/09:00pm 20.8 19.5 14.9 69 3.5 E 15 17 8 9 1022.9 1022.2 0.0
16/08:30pm 20.6 19.5 15.2 71 3.2 E 15 17 8 9 1022.8 1022.1 0.0
16/08:00pm 19.7 17.9 15.4 76 2.6 E 19 20 10 11 1022.5 1021.8 0.0
16/07:30pm 21.3 19.9 15.6 70 3.4 E 17 19 9 10 1022.2 1021.5 0.0
16/07:00pm 21.3 20.4 14.9 67 3.8 E 13 15 7 8 1022.2 1021.5 0.0
16/06:30pm 22.1 21.9 14.7 63 4.4 ENE 9 9 5 5 1022.0 1021.3 0.0
16/06:00pm 22.7 24.3 15.0 61 4.6 CALM 0 0 0 0 1021.8 1021.1 0.0
16/05:30pm 26.7 28.2 15.7 51 6.8 NNW 2 6 1 3 1021.7 1021.0 0.0
16/05:00pm 30.3 31.6 14.0 37 9.9 CALM 0 4 0 2 1021.6 1020.9 0.0
16/04:30pm 29.5 29.5 14.1 39 9.4 NNW 7 11 4 6 1021.6 1020.9 0.0
16/04:00pm 29.2 28.8 13.0 37 9.6 NW 7 11 4 6 1021.6 1020.9 0.0
16/03:30pm 29.5 29.0 13.7 38 9.5 WNW 9 15 5 8 1021.8 1021.1 0.0
16/03:00pm 29.6 28.6 13.4 37 9.7 WNW 11 15 6 8 1022.0 1021.3 0.0
16/02:30pm 29.1 28.3 14.1 40 9.1 NW 11 20 6 11 1022.1 1021.4 0.0
16/02:00pm 29.1 27.8 13.7 38 9.3 NW 13 19 7 10 1022.8 1022.1 0.0
16/01:30pm 28.9 28.3 14.7 42 8.7 NNW 11 15 6 8 1023.0 1022.3 0.0
16/01:00pm 28.3 27.5 15.2 44 8.0 NNW 13 22 7 12 1023.4 1022.7 0.0
16/12:30pm 28.1 26.9 15.1 45 8.0 NW 15 26 8 14 1023.9 1023.2 0.0
16/12:00pm 27.5 25.5 15.5 48 7.4 N 20 28 11 15 1024.4 1023.8 0.0
16/11:30am 26.8 23.9 15.2 49 7.1 NNW 24 32 13 17 1024.8 1024.2 0.0
16/11:00am 26.3 23.9 15.4 51 6.6 N 22 28 12 15 1025.2 1024.6 0.0
16/10:30am 25.7 23.0 15.7 54 6.1 N 24 33 13 18 1025.6 1024.9 0.0
16/10:00am 25.0 21.9 15.6 56 5.7 N 26 33 14 18 1025.8 1025.1 0.0
16/09:30am 24.4 21.4 15.9 59 5.2 N 26 32 14 17 1026.2 1025.5 0.0
16/09:00am 24.0 21.8 16.0 61 4.9 N 22 32 12 17 1026.5 1025.8 0.0
16/08:30am 23.1 21.2 15.7 63 4.5 N 20 28 11 15 1026.3 1025.6 0.0
16/08:00am 18.8 19.8 16.4 86 1.4 SSW 6 9 3 5 1026.2 1025.5 0.0
16/07:30am 17.5 19.7 16.5 94 0.6 CALM 0 0 0 0 1025.5 1024.8 0.0
16/07:00am 14.8 15.6 14.8 100 0.0 WNW 4 9 2 5 1025.3 1024.7 0.0
16/06:30am 14.0 14.9 14.0 100 0.0 NNW 2 7 1 4 1024.6 1024.0 0.0
16/06:00am 14.5 14.8 14.5 100 0.0 WSW 6 7 3 4 1024.4 1023.8 0.0
16/05:30am 14.4 14.7 14.4 100 0.0 W 6 15 3 8 1024.4 1023.8 0.0
16/05:00am 14.9 14.4 14.9 100 0.0 S 11 15 6 8 1023.9 1023.2 0.0
16/04:30am 14.7 15.1 14.7 100 0.0 SSE 6 7 3 4 1023.8 1023.1 0.0
16/04:00am 15.1 15.3 14.8 98 0.2 WSW 7 11 4 6 1023.5 1022.8 0.0
16/03:30am 14.6 15.9 14.0 96 0.3 CALM 0 6 0 3 1023.4 1022.7 0.0
16/03:00am 15.5 16.0 14.0 91 0.9 SW 4 7 2 4 1023.4 1022.7 0.0
16/02:30am 16.0 16.7 14.5 91 0.9 ESE 4 7 2 4 1023.6 1022.9 0.0
16/02:00am 17.8 17.8 15.1 84 1.6 E 9 13 5 7 1023.8 1023.1 0.0
16/01:30am 17.7 17.0 15.5 87 1.3 E 13 15 7 8 1024.1 1023.5 0.0
16/01:00am 15.8 15.6 15.8 100 0.0 ENE 11 13 6 7 1024.4 1023.8 0.0
16/12:30am 16.1 17.8 15.3 95 0.5 CALM 0 0 0 0 1024.7 1024.1 0.0
16/12:00am 16.6 16.6 14.2 86 1.4 SW 7 9 4 5 1024.8 1024.2 0.0
 
Date/Time
EST
Temp
°C
App
Temp
°C
Dew
Point
Rel
Hum
%
Delta-T
°C
Wind Press
QNH
hPa
Press
MSL
hPa
Rain
since 9 am
mm
Dir
 
Spd
km/h
Gust
km/h
Spd
kts
Gust
kts
15/11:30pm 20.1 18.0 14.7 71 3.2 E 19 20 10 11 1024.4 1023.8 0.0
15/11:00pm 19.9 18.2 14.7 72 3.1 E 17 20 9 11 1024.5 1023.9 0.0
15/10:30pm 19.5 17.5 15.0 75 2.7 E 19 20 10 11 1024.8 1024.2 0.0
15/10:00pm 19.5 17.9 15.0 75 2.7 E 17 19 9 10 1024.9 1024.3 0.0

Other Formats:

Comma delimited format used in spreadsheet applications
http://www.bom.gov.au/fwo/IDN60801/IDN60801.95734.axf

JavaScript Object Notation format (JSON) in row-major order
http://www.bom.gov.au/fwo/IDN60801/IDN60801.95734.json